Time;durP1;ratioP1;P1;durP2;ratioP2;P2;SDS_P1;SDS_P2;PMS_P1;PMS_P2;Temp;Humidity;BMP_temperature;BMP_pressure;BME280_temperature;BME280_humidity;BME280_pressure;Samples;Min_cycle;Max_cycle;Signal;HPM_P1;HPM_P2
2021/08/23 00:00:55;;;;;;;10.82;7.63;;;;;;;18.93;64.38;97572.66;5070204;28;20471;-72
2021/08/23 00:03:20;;;;;;;18.23;8.30;;;;;;;18.90;64.68;97568.41;5071853;28;20032;-72
2021/08/23 00:05:46;;;;;;;20.52;8.00;;;;;;;18.93;64.53;97576.25;5054240;28;20028;-73
2021/08/23 00:08:12;;;;;;;14.80;7.55;;;;;;;18.91;64.71;97583.69;5070825;28;20028;-72
2021/08/23 00:10:37;;;;;;;14.23;8.35;;;;;;;18.93;64.57;97575.38;5070912;28;20488;-72
2021/08/23 00:13:03;;;;;;;18.52;7.85;;;;;;;18.91;64.14;97578.25;5071971;28;20085;-72
2021/08/23 00:15:29;;;;;;;15.43;8.07;;;;;;;19.00;64.15;97578.38;5053779;28;20051;-73
2021/08/23 00:17:54;;;;;;;13.90;8.18;;;;;;;19.05;63.78;97585.06;5070565;28;20035;-72
2021/08/23 00:20:25;;;;;;;13.68;7.60;;;;;;;18.97;63.84;97575.94;5087167;28;20051;-72
2021/08/23 00:22:51;;;;;;;11.52;7.88;;;;;;;19.03;63.97;97580.78;5071919;28;20032;-72
2021/08/23 00:25:21;;;;;;;15.25;7.90;;;;;;;18.95;63.83;97585.06;5053473;28;20123;-72
2021/08/23 00:27:47;;;;;;;14.23;7.45;;;;;;;18.95;64.17;97579.66;5053649;28;20028;-72
2021/08/23 00:30:15;;;;;;;14.95;7.65;;;;;;;18.94;64.14;97583.38;5072097;28;20614;-72
2021/08/23 00:32:42;;;;;;;14.13;7.93;;;;;;;18.91;64.33;97583.69;5070442;28;20078;-72
2021/08/23 00:35:08;;;;;;;15.95;8.00;;;;;;;18.74;64.79;97587.13;5070430;28;20082;-72
2021/08/23 00:37:34;;;;;;;10.52;7.47;;;;;;;18.70;64.75;97596.53;5070177;28;20140;-72
2021/08/23 00:40:01;;;;;;;11.45;7.55;;;;;;;18.63;65.28;97592.69;5070423;28;20042;-72
2021/08/23 00:42:27;;;;;;;14.25;7.65;;;;;;;18.51;65.68;97591.13;5070234;28;20024;-72
2021/08/23 00:44:52;;;;;;;13.23;8.55;;;;;;;18.49;65.84;97579.56;5070343;28;20028;-72
2021/08/23 00:47:18;;;;;;;11.80;8.15;;;;;;;18.55;65.79;97589.84;5053444;28;20031;-73
2021/08/23 00:49:43;;;;;;;13.38;7.93;;;;;;;18.49;65.93;97586.84;5087061;28;20086;-72
2021/08/23 00:52:09;;;;;;;16.40;8.85;;;;;;;18.48;66.11;97591.38;5053605;28;20090;-73
2021/08/23 00:54:35;;;;;;;11.63;7.50;;;;;;;18.48;65.69;97590.53;5053137;28;20032;-72
2021/08/23 00:57:03;;;;;;;15.75;7.50;;;;;;;18.48;66.16;97591.38;5086984;28;20483;-72
2021/08/23 00:59:30;;;;;;;12.68;7.82;;;;;;;18.51;65.55;97579.44;5069945;28;20547;-72
2021/08/23 01:02:01;;;;;;;20.00;7.65;;;;;;;18.56;65.84;97586.13;5070091;28;20029;-73
2021/08/23 01:04:46;;;;;;;15.65;8.10;;;;;;;18.52;65.72;97586.59;5070954;28;20034;-73
2021/08/23 01:07:13;;;;;;;10.88;7.30;;;;;;;18.56;65.65;97586.13;5071354;28;20024;-72
2021/08/23 01:09:41;;;;;;;15.52;7.50;;;;;;;18.55;65.85;97581.69;5069897;28;20030;-72
2021/08/23 01:12:07;;;;;;;9.52;7.00;;;;;;;18.49;66.87;97570.59;5053167;28;20086;-72
2021/08/23 01:14:33;;;;;;;10.00;7.25;;;;;;;18.41;68.20;97582.13;5069627;28;20028;-72
2021/08/23 01:17:00;;;;;;;13.93;7.38;;;;;;;18.45;67.43;97571.84;5053136;28;20028;-72
2021/08/23 01:19:27;;;;;;;15.77;7.30;;;;;;;18.38;67.19;97577.84;5069691;28;20028;-72
2021/08/23 01:21:53;;;;;;;14.50;8.00;;;;;;;18.42;66.93;97571.16;5069777;28;20078;-73
2021/08/23 01:24:19;;;;;;;11.25;7.63;;;;;;;18.38;67.29;97576.97;5053329;28;20102;-72
2021/08/23 01:26:48;;;;;;;11.23;7.80;;;;;;;18.42;66.86;97565.75;5069575;28;20112;-72
2021/08/23 01:29:44;;;;;;;14.13;8.05;;;;;;;18.36;67.03;97574.41;5053084;28;20408;-73
2021/08/23 01:32:19;;;;;;;13.55;7.93;;;;;;;18.40;66.91;97570.41;5069700;28;20062;-73
2021/08/23 01:34:45;;;;;;;14.55;7.53;;;;;;;18.36;66.94;97568.97;5052792;28;20112;-72
2021/08/23 01:37:13;;;;;;;16.73;8.00;;;;;;;18.40;67.20;97570.41;5069554;28;20403;-72
2021/08/23 01:39:40;;;;;;;11.60;8.07;;;;;;;18.41;66.92;97574.84;5069404;28;20081;-71
2021/08/23 01:42:05;;;;;;;11.95;8.30;;;;;;;18.43;67.09;97563.84;5069773;28;20077;-71
2021/08/23 01:44:31;;;;;;;10.35;7.25;;;;;;;18.38;67.49;97560.72;5070400;28;20028;-72
2021/08/23 01:46:57;;;;;;;10.00;7.70;;;;;;;18.29;67.30;97559.75;5086429;28;20404;-72
2021/08/23 01:49:22;;;;;;;11.23;6.80;;;;;;;18.25;67.67;97562.84;5052774;28;20097;-72
2021/08/23 01:51:48;;;;;;;9.00;7.43;;;;;;;18.29;67.84;97562.44;5052566;28;20032;-72
2021/08/23 01:54:13;;;;;;;14.23;7.78;;;;;;;18.33;67.78;97571.16;5069619;28;20468;-73
2021/08/23 01:56:39;;;;;;;14.48;7.43;;;;;;;18.30;67.77;97566.03;5069389;28;20468;-73
2021/08/23 01:59:05;;;;;;;11.43;7.47;;;;;;;18.18;68.14;97561.75;5069739;28;20403;-72
2021/08/23 02:01:31;;;;;;;9.98;7.40;;;;;;;18.19;67.87;97561.59;5052678;28;20495;-72
2021/08/23 02:03:57;;;;;;;16.92;8.10;;;;;;;18.15;68.34;97567.44;5069194;28;20024;-72
2021/08/23 02:06:23;;;;;;;13.38;7.40;;;;;;;18.16;68.18;97559.16;5069349;28;20016;-72
2021/08/23 02:08:49;;;;;;;13.55;7.45;;;;;;;18.16;68.04;97561.00;5069335;28;20087;-72
2021/08/23 02:11:15;;;;;;;16.27;8.45;;;;;;;18.19;68.39;97558.00;5085979;28;20017;-72
2021/08/23 02:13:40;;;;;;;13.10;8.27;;;;;;;18.08;68.56;97555.44;5069141;28;20025;-73
2021/08/23 02:16:06;;;;;;;14.98;8.25;;;;;;;18.14;68.81;97563.00;5086260;28;20499;-73
2021/08/23 02:18:31;;;;;;;14.77;8.25;;;;;;;18.18;68.75;97561.75;5070590;28;20511;-72
2021/08/23 02:20:57;;;;;;;16.38;9.63;;;;;;;18.27;68.37;97569.84;5070342;28;20483;-72
2021/08/23 02:23:22;;;;;;;16.77;9.07;;;;;;;18.12;68.63;97552.31;5070598;28;20024;-73
2021/08/23 02:25:48;;;;;;;20.55;9.27;;;;;;;18.13;68.89;97554.03;5072463;28;20127;-72
2021/08/23 02:28:14;;;;;;;16.02;8.73;;;;;;;18.16;68.95;97555.59;5072865;28;20055;-72
2021/08/23 02:30:39;;;;;;;17.45;9.10;;;;;;;18.14;68.94;97563.00;5055912;28;20058;-72
2021/08/23 02:33:05;;;;;;;12.52;8.65;;;;;;;18.18;68.97;97556.31;5072757;28;20025;-72
2021/08/23 02:35:31;;;;;;;27.60;9.38;;;;;;;18.22;68.98;97557.72;5072736;28;20020;-72
2021/08/23 02:37:56;;;;;;;12.15;7.57;;;;;;;18.33;68.54;97563.03;5073794;28;20108;-72
2021/08/23 02:40:22;;;;;;;15.20;8.13;;;;;;;18.31;68.60;97557.75;5072676;28;20476;-71
2021/08/23 02:42:47;;;;;;;17.13;8.00;;;;;;;18.32;68.71;97550.47;5055709;28;20733;-72
2021/08/23 02:45:13;;;;;;;19.00;8.23;;;;;;;18.34;68.78;97554.75;5073666;28;20024;-73
2021/08/23 02:47:39;;;;;;;31.58;8.52;;;;;;;18.37;68.50;97561.72;5072376;28;20036;-72
2021/08/23 02:50:06;;;;;;;17.85;8.40;;;;;;;18.26;68.70;97554.63;5073687;28;20032;-72
2021/08/23 02:52:33;;;;;;;20.90;9.23;;;;;;;18.25;68.94;97549.31;5072252;28;20013;-72
2021/08/23 02:54:58;;;;;;;17.58;9.38;;;;;;;18.20;69.31;97547.06;5072079;28;20028;-72
2021/08/23 02:57:24;;;;;;;22.42;11.43;;;;;;;18.16;69.67;97547.47;5055534;28;20444;-72
2021/08/23 02:59:49;;;;;;;30.00;11.48;;;;;;;18.14;70.30;97552.19;5055286;28;20508;-72
2021/08/23 03:02:15;;;;;;;25.83;10.90;;;;;;;18.04;71.10;97560.28;5072152;28;20029;-72
2021/08/23 03:04:40;;;;;;;43.03;14.35;;;;;;;17.96;71.67;97551.16;5071777;28;20024;-72
2021/08/23 03:07:06;;;;;;;29.25;12.50;;;;;;;17.86;72.18;97552.00;5055019;28;21404;-72
2021/08/23 03:09:31;;;;;;;22.73;10.45;;;;;;;17.86;71.91;97557.44;5073470;28;20086;-72
2021/08/23 03:11:57;;;;;;;35.78;14.82;;;;;;;17.93;72.12;97559.56;5055095;28;20033;-72
2021/08/23 03:14:23;;;;;;;19.77;11.13;;;;;;;17.83;72.05;97563.13;5073339;28;20024;-72
2021/08/23 03:16:49;;;;;;;18.17;10.07;;;;;;;17.86;72.02;97565.53;5072978;28;20090;-73
2021/08/23 03:19:14;;;;;;;35.63;14.05;;;;;;;17.75;72.45;97552.13;5071739;28;20020;-72
2021/08/23 03:21:40;;;;;;;25.58;12.50;;;;;;;17.77;72.46;97558.25;5073038;28;20467;-73
2021/08/23 03:24:05;;;;;;;29.13;10.82;;;;;;;17.78;72.32;97553.72;5054701;28;20500;-72
2021/08/23 03:26:32;;;;;;;23.02;11.57;;;;;;;17.81;72.38;97559.66;5071760;28;20109;-72
2021/08/23 03:28:58;;;;;;;27.13;11.45;;;;;;;17.82;73.00;97549.72;5054881;28;20032;-72
2021/08/23 03:31:23;;;;;;;20.70;9.90;;;;;;;17.73;73.21;97546.00;5054962;28;20086;-72
2021/08/23 03:33:49;;;;;;;16.65;9.60;;;;;;;17.77;73.33;97544.72;5072787;28;20024;-72
2021/08/23 03:36:15;;;;;;;29.73;10.98;;;;;;;17.67;73.81;97549.25;5054426;28;20058;-72
2021/08/23 03:38:42;;;;;;;21.38;9.68;;;;;;;17.76;73.63;97555.69;5088431;28;20029;-73
2021/08/23 03:41:10;;;;;;;22.20;9.98;;;;;;;17.71;73.99;97553.41;5088128;28;20024;-72
2021/08/23 03:43:35;;;;;;;16.23;9.20;;;;;;;17.64;74.03;97551.38;5071175;28;20028;-72
2021/08/23 03:46:01;;;;;;;26.80;10.40;;;;;;;17.61;74.22;97555.22;5054101;28;20028;-73
2021/08/23 03:48:26;;;;;;;23.55;10.18;;;;;;;17.64;74.32;97557.66;5071362;28;20024;-72
2021/08/23 03:50:52;;;;;;;22.02;10.70;;;;;;;17.68;74.35;97559.09;5054546;28;20450;-72
2021/08/23 03:53:17;;;;;;;19.58;9.40;;;;;;;17.73;73.85;97556.81;5072210;28;20035;-72
2021/08/23 03:55:43;;;;;;;23.25;10.20;;;;;;;17.73;73.51;97567.63;5088151;28;20032;-71
2021/08/23 03:58:08;;;;;;;22.40;10.68;;;;;;;17.80;73.39;97560.69;5070671;28;20492;-72
2021/08/23 04:00:34;;;;;;;23.33;10.45;;;;;;;17.83;72.84;97563.13;5070783;28;20031;-72
2021/08/23 04:02:59;;;;;;;25.98;10.57;;;;;;;17.84;72.97;97572.91;5070471;28;20404;-73
2021/08/23 04:05:25;;;;;;;23.35;10.30;;;;;;;17.76;73.79;97567.38;5054186;28;20028;-71
2021/08/23 04:07:50;;;;;;;26.83;10.10;;;;;;;17.82;73.50;97565.94;5070715;28;20454;-71
2021/08/23 04:10:16;;;;;;;20.42;9.77;;;;;;;17.80;73.42;97574.22;5070595;28;20461;-71
2021/08/23 04:12:42;;;;;;;23.45;8.90;;;;;;;17.80;73.78;97574.22;5072044;28;20020;-72
2021/08/23 04:15:08;;;;;;;26.40;9.85;;;;;;;17.86;73.56;97573.66;5070743;28;20511;-73
2021/08/23 04:17:33;;;;;;;15.70;9.80;;;;;;;17.91;73.31;97572.38;5070671;28;20035;-72
2021/08/23 04:20:01;;;;;;;22.77;9.65;;;;;;;17.95;72.95;97576.50;5053949;28;20032;-73
2021/08/23 04:22:26;;;;;;;27.23;12.10;;;;;;;18.03;72.55;97577.53;5070217;28;20031;-74
2021/08/23 04:24:52;;;;;;;24.30;11.30;;;;;;;18.09;71.99;97578.84;5053581;28;20044;-72
2021/08/23 04:27:17;;;;;;;17.73;10.80;;;;;;;18.21;71.38;97580.41;5069979;28;20024;-72
2021/08/23 04:29:43;;;;;;;31.88;11.15;;;;;;;18.27;71.16;97571.72;5070131;28;20035;-72
2021/08/23 04:32:09;;;;;;;23.23;13.35;;;;;;;18.26;71.01;97580.84;5070117;28;20475;-74
2021/08/23 04:34:35;;;;;;;19.77;10.65;;;;;;;18.36;70.59;97579.00;5053597;28;20036;-73
2021/08/23 04:37:03;;;;;;;27.77;11.27;;;;;;;18.49;70.21;97576.84;5053886;28;20024;-72
2021/08/23 04:39:31;;;;;;;17.73;10.02;;;;;;;18.59;69.51;97576.84;5070189;28;20023;-72
2021/08/23 04:41:56;;;;;;;20.95;10.52;;;;;;;18.71;69.24;97584.69;5070184;28;20021;-72
2021/08/23 04:44:22;;;;;;;21.23;11.13;;;;;;;18.76;68.74;97584.28;5070074;28;20044;-72
2021/08/23 04:46:49;;;;;;;24.23;12.98;;;;;;;18.85;68.46;97578.84;5052751;28;20115;-72
2021/08/23 04:49:15;;;;;;;30.13;13.48;;;;;;;18.99;68.17;97580.22;5069219;28;20056;-72
2021/08/23 04:51:41;;;;;;;20.58;11.70;;;;;;;19.08;67.62;97579.34;5070110;28;20028;-71
2021/08/23 04:54:07;;;;;;;28.85;12.02;;;;;;;19.22;67.43;97583.44;5051855;28;20491;-72
2021/08/23 04:56:32;;;;;;;37.22;13.05;;;;;;;19.30;67.09;97567.28;5070048;28;20428;-75
2021/08/23 04:58:58;;;;;;;51.03;17.85;;;;;;;19.42;67.03;97571.53;5071781;28;20024;-80
2021/08/23 05:01:23;;;;;;;30.83;13.75;;;;;;;19.63;66.50;97577.59;5070035;28;20127;-73
2021/08/23 05:03:49;;;;;;;46.00;15.10;;;;;;;19.88;65.80;97590.47;5069802;28;20032;-73
2021/08/23 05:06:15;;;;;;;47.65;15.85;;;;;;;20.05;64.39;97582.50;5069692;28;20031;-74
2021/08/23 05:08:40;;;;;;;51.90;14.60;;;;;;;20.12;63.75;97580.91;5070039;28;20050;-74
2021/08/23 05:11:06;;;;;;;36.08;14.02;;;;;;;20.22;63.95;97585.25;5069806;28;20032;-74
2021/08/23 05:13:32;;;;;;;58.35;16.10;;;;;;;20.36;62.92;97587.47;5069473;28;20043;-73
2021/08/23 05:15:57;;;;;;;40.30;16.20;;;;;;;20.44;63.16;97592.13;5053038;28;20545;-73
2021/08/23 05:18:23;;;;;;;35.72;12.35;;;;;;;20.46;62.51;97573.78;5086391;28;20437;-73
2021/08/23 05:20:49;;;;;;;24.77;11.45;;;;;;;20.77;61.93;97585.97;5069933;28;20013;-73
2021/08/23 05:23:15;;;;;;;26.75;12.15;;;;;;;20.78;61.93;97579.53;5069568;28;20107;-74
2021/08/23 05:25:43;;;;;;;37.03;12.57;;;;;;;20.82;62.30;97580.91;5069499;28;20042;-73
2021/08/23 05:28:27;;;;;;;28.55;11.20;;;;;;;21.05;61.44;97587.53;5086605;28;20054;-73
2021/08/23 05:30:52;;;;;;;34.45;12.05;;;;;;;21.32;60.39;97583.00;5070690;28;20032;-73
2021/08/23 05:33:18;;;;;;;19.02;9.90;;;;;;;21.38;59.55;97579.66;5070778;28;20103;-73
2021/08/23 05:35:43;;;;;;;30.83;12.60;;;;;;;21.66;58.95;97586.56;5069671;28;20575;-73
2021/08/23 05:38:09;;;;;;;26.67;10.18;;;;;;;22.75;55.76;97581.97;5052823;28;20028;-72
2021/08/23 05:40:34;;;;;;;28.30;9.73;;;;;;;24.46;50.99;97589.56;5052790;28;20032;-73
2021/08/23 05:43:02;;;;;;;40.42;13.20;;;;;;;26.19;45.90;97591.19;5069505;28;20025;-72
2021/08/23 05:45:28;;;;;;;27.15;9.23;;;;;;;27.90;41.79;97577.22;5052510;28;20025;-73
2021/08/23 05:47:54;;;;;;;30.20;9.57;;;;;;;28.91;39.25;97582.75;5069483;28;20028;-73
2021/08/23 05:50:19;;;;;;;24.10;9.15;;;;;;;30.24;36.81;97568.63;5069085;28;20469;-73
2021/08/23 05:52:45;;;;;;;23.73;10.18;;;;;;;30.15;36.69;97575.47;5052672;28;20028;-73
2021/08/23 05:55:11;;;;;;;24.88;9.13;;;;;;;31.19;34.68;97567.72;5069628;28;20173;-73
2021/08/23 05:57:36;;;;;;;21.92;9.45;;;;;;;31.99;33.37;97571.47;5070490;28;20495;-72
2021/08/23 06:00:04;;;;;;;59.03;29.00;;;;;;;32.09;33.06;97577.34;5089158;28;20074;-73
2021/08/23 06:02:30;;;;;;;25.27;8.75;;;;;;;32.67;32.38;97573.00;5073014;28;20103;-73
2021/08/23 06:04:55;;;;;;;24.73;11.80;;;;;;;33.19;31.20;97567.81;5073034;28;20119;-73
2021/08/23 06:07:21;;;;;;;31.02;9.65;;;;;;;34.00;30.46;97561.47;5074122;28;20400;-74
2021/08/23 06:09:47;;;;;;;31.42;10.85;;;;;;;33.97;30.31;97567.53;5074192;28;20028;-73
2021/08/23 06:12:13;;;;;;;27.63;8.68;;;;;;;35.00;28.78;97570.31;5073216;28;20040;-73
2021/08/23 06:14:40;;;;;;;27.10;8.65;;;;;;;35.37;27.85;97554.91;5055998;28;20036;-74
2021/08/23 06:17:09;;;;;;;57.38;17.70;;;;;;;34.62;28.90;97559.84;5074192;28;20032;-74
2021/08/23 06:19:34;;;;;;;21.60;9.10;;;;;;;34.54;28.70;97563.00;5072716;28;20037;-73
2021/08/23 06:22:01;;;;;;;38.92;14.02;;;;;;;35.48;27.97;97559.53;5089814;28;20029;-73
2021/08/23 06:24:26;;;;;;;20.13;9.05;;;;;;;35.13;27.98;97551.41;5072390;28;20132;-74
2021/08/23 06:26:52;;;;;;;27.55;9.65;;;;;;;35.90;27.08;97552.44;5055940;28;20502;-74
2021/08/23 06:29:17;;;;;;;24.98;8.35;;;;;;;36.34;26.34;97552.53;5072772;28;20082;-74
2021/08/23 06:31:43;;;;;;;16.48;7.88;;;;;;;35.62;27.06;97552.56;5072327;28;20024;-74
2021/08/23 06:34:08;;;;;;;22.70;8.90;;;;;;;35.52;27.24;97560.72;5072763;28;20118;-75
2021/08/23 06:36:35;;;;;;;28.83;6.95;;;;;;;35.36;27.18;97558.78;5072373;28;20573;-73
2021/08/23 06:39:01;;;;;;;14.80;6.10;;;;;;;35.66;27.16;97562.09;5072538;28;20024;-73
2021/08/23 06:41:28;;;;;;;12.35;6.75;;;;;;;35.66;27.47;97564.03;5072269;28;20413;-74
2021/08/23 06:43:54;;;;;;;25.15;8.30;;;;;;;36.60;26.00;97557.38;5072260;28;20052;-74
2021/08/23 06:46:19;;;;;;;30.88;15.98;;;;;;;36.04;26.90;97561.28;5055629;28;20032;-73
2021/08/23 06:48:45;;;;;;;25.98;7.10;;;;;;;35.40;27.37;97561.91;5073307;28;20033;-74
2021/08/23 06:51:11;;;;;;;14.60;11.75;;;;;;;35.34;27.43;97566.53;5072316;28;20099;-74
2021/08/23 06:53:37;;;;;;;9.95;6.10;;;;;;;34.88;27.89;97562.03;5055402;28;20484;-74
2021/08/23 06:56:03;;;;;;;18.38;6.35;;;;;;;35.93;26.69;97561.41;5055504;28;20154;-74
2021/08/23 06:58:28;;;;;;;10.35;5.90;;;;;;;36.23;26.23;97550.72;5071865;28;20028;-74
2021/08/23 07:00:54;;;;;;;13.43;6.72;;;;;;;36.97;26.07;97556.66;5073269;28;20039;-74
2021/08/23 07:03:19;;;;;;;24.15;6.88;;;;;;;37.47;25.24;97561.97;5072145;28;20556;-75
2021/08/23 07:05:45;;;;;;;24.30;9.38;;;;;;;37.66;24.98;97561.28;5071932;28;20105;-74
2021/08/23 07:08:10;;;;;;;17.40;6.57;;;;;;;37.38;25.12;97547.59;5072159;28;20047;-73
2021/08/23 07:10:36;;;;;;;11.38;6.82;;;;;;;35.66;27.13;97544.53;5072552;28;20099;-74
2021/08/23 07:13:02;;;;;;;16.23;6.93;;;;;;;36.77;26.38;97546.97;5071824;28;20054;-73
2021/08/23 07:15:27;;;;;;;22.02;6.95;;;;;;;36.98;25.58;97539.63;5055091;28;20082;-73
2021/08/23 07:17:53;;;;;;;11.10;5.85;;;;;;;37.22;24.89;97543.84;5072882;28;20031;-73
2021/08/23 07:20:18;;;;;;;24.85;6.90;;;;;;;37.87;24.61;97540.75;5072972;28;20112;-74
2021/08/23 07:22:44;;;;;;;13.57;5.35;;;;;;;39.19;23.10;97541.41;5071589;28;20032;-73
2021/08/23 07:25:10;;;;;;;18.73;6.45;;;;;;;40.40;22.05;97521.72;5071567;28;20036;-74
2021/08/23 07:27:35;;;;;;;11.90;6.43;;;;;;;40.87;21.29;97524.88;5072507;28;20032;-74
2021/08/23 07:30:02;;;;;;;7.57;5.72;;;;;;;40.72;21.38;97521.31;5072768;28;20028;-73
2021/08/23 07:32:28;;;;;;;21.70;5.88;;;;;;;41.09;20.92;97511.31;5072549;28;20020;-74
2021/08/23 07:34:53;;;;;;;9.40;5.63;;;;;;;41.27;20.70;97506.13;5072604;28;20021;-73
2021/08/23 07:37:19;;;;;;;13.15;9.68;;;;;;;41.49;19.86;97507.38;5054606;28;20024;-73
2021/08/23 07:39:45;;;;;;;9.02;4.72;;;;;;;41.51;20.20;97498.63;5072441;28;20077;-74
2021/08/23 07:42:12;;;;;;;117.15;9.77;;;;;;;42.10;19.63;97510.44;5054579;28;20028;-74
2021/08/23 07:44:37;;;;;;;12.57;5.30;;;;;;;42.08;19.53;97498.66;5087863;28;20029;-73
2021/08/23 07:47:04;;;;;;;7.50;4.45;;;;;;;41.19;19.64;97487.94;5071118;28;20389;-74
2021/08/23 07:49:30;;;;;;;7.22;4.95;;;;;;;40.14;20.52;97486.47;5071223;28;20477;-74
2021/08/23 07:51:56;;;;;;;24.98;5.50;;;;;;;39.22;21.31;97493.25;5070902;28;22044;-74
2021/08/23 07:54:21;;;;;;;5.82;4.85;;;;;;;39.52;21.22;97499.72;5072235;28;20020;-73
2021/08/23 07:56:47;;;;;;;7.30;5.38;;;;;;;39.46;20.54;97502.78;5070397;28;20039;-74
2021/08/23 07:59:15;;;;;;;8.20;4.97;;;;;;;39.29;21.37;97499.41;5054255;28;20064;-75
2021/08/23 08:01:41;;;;;;;6.70;4.07;;;;;;;39.00;21.44;97485.94;5072113;28;20123;-72
2021/08/23 08:04:06;;;;;;;23.17;13.13;;;;;;;40.17;20.38;97492.34;5070890;28;20108;-73
2021/08/23 08:06:32;;;;;;;8.18;4.72;;;;;;;40.68;19.51;97498.59;5070919;28;20021;-73
2021/08/23 08:08:58;;;;;;;5.30;4.80;;;;;;;41.45;19.15;97486.59;5070536;28;20036;-73
2021/08/23 08:11:23;;;;;;;16.50;4.28;;;;;;;42.41;18.44;97496.03;5070678;28;20499;-74
2021/08/23 08:13:49;;;;;;;4.90;4.00;;;;;;;41.50;18.91;97500.59;5053708;28;20432;-73
2021/08/23 08:16:14;;;;;;;9.05;4.57;;;;;;;42.09;18.45;97491.88;5072133;28;20036;-73
2021/08/23 08:18:40;;;;;;;10.75;4.68;;;;;;;42.97;18.06;97497.03;5071823;28;20043;-74
2021/08/23 08:21:05;;;;;;;6.70;4.72;;;;;;;42.83;18.40;97490.44;5061830;28;20028;-74
2021/08/23 08:23:31;;;;;;;11.15;5.22;;;;;;;43.82;17.37;97488.31;5053522;28;20020;-74
2021/08/23 08:25:57;;;;;;;6.53;4.53;;;;;;;44.57;16.62;97490.84;5070227;28;20111;-74
2021/08/23 08:28:23;;;;;;;7.78;4.50;;;;;;;44.42;16.83;97471.38;5053873;28;20498;-75
2021/08/23 08:30:49;;;;;;;4.90;4.43;;;;;;;43.73;16.98;97485.34;5070325;28;20078;-74
2021/08/23 08:33:15;;;;;;;7.63;5.70;;;;;;;43.24;17.31;97470.13;5070591;28;20470;-74
2021/08/23 08:35:50;;;;;;;9.63;5.68;;;;;;;42.83;17.77;97467.06;5070429;28;20028;-74
2021/08/23 08:38:16;;;;;;;7.90;4.57;;;;;;;43.24;17.51;97465.31;5063576;28;20377;-74
2021/08/23 08:40:41;;;;;;;6.40;4.60;;;;;;;42.81;17.86;97470.19;5071539;28;20024;-74
2021/08/23 08:43:07;;;;;;;8.55;4.78;;;;;;;44.15;16.64;97473.03;5070080;28;20484;-74
2021/08/23 08:45:33;;;;;;;12.57;7.75;;;;;;;45.72;15.63;97473.13;5053455;28;20052;-74
2021/08/23 08:48:00;;;;;;;7.00;4.50;;;;;;;44.81;15.79;97466.00;5053210;28;20032;-74
2021/08/23 08:50:26;;;;;;;7.82;5.03;;;;;;;42.03;17.82;97450.91;5070077;28;20503;-74
2021/08/23 08:52:52;;;;;;;7.05;4.18;;;;;;;43.07;17.28;97451.78;5071026;28;20484;-74
2021/08/23 08:55:17;;;;;;;7.80;4.30;;;;;;;41.94;18.11;97461.13;5070080;28;20090;-74
2021/08/23 08:57:43;;;;;;;14.90;4.22;;;;;;;42.25;18.17;97466.41;5053278;28;20089;-74
2021/08/23 09:00:10;;;;;;;6.50;4.15;;;;;;;43.43;17.02;97452.06;5069700;28;20083;-74
2021/08/23 09:02:36;;;;;;;14.35;4.40;;;;;;;44.08;16.33;97455.69;5071163;28;20024;-74
2021/08/23 09:05:14;;;;;;;4.82;4.20;;;;;;;42.56;17.70;97451.66;5069652;28;20024;-73
2021/08/23 09:07:40;;;;;;;8.63;4.47;;;;;;;42.68;17.55;97451.22;5069762;28;20024;-73
2021/08/23 09:10:23;;;;;;;7.38;4.70;;;;;;;44.04;16.48;97454.63;5069667;28;20043;-74
2021/08/23 09:13:03;;;;;;;7.55;4.28;;;;;;;43.99;16.65;97453.88;5053258;28;20064;-74
2021/08/23 09:15:29;;;;;;;5.82;4.18;;;;;;;44.01;16.33;97449.59;5071045;28;20020;-75
2021/08/23 09:18:05;;;;;;;7.15;4.70;;;;;;;43.49;16.97;97450.84;5069602;28;20515;-73
2021/08/23 09:20:32;;;;;;;4.80;4.30;;;;;;;44.13;16.05;97443.44;5069815;28;20082;-74
2021/08/23 09:23:13;;;;;;;18.60;4.50;;;;;;;44.55;16.00;97439.47;5069548;28;20052;-73
2021/08/23 09:25:39;;;;;;;8.48;4.40;;;;;;;45.46;15.21;97445.81;5086374;28;20533;-74
2021/08/23 09:28:06;;;;;;;4.65;4.25;;;;;;;45.07;15.52;97443.69;5052675;28;20032;-74
2021/08/23 09:30:33;;;;;;;5.53;3.97;;;;;;;46.29;14.45;97443.00;5070661;28;20020;-74
2021/08/23 09:33:01;;;;;;;220.98;13.73;;;;;;;43.51;16.44;97426.00;5070885;28;20408;-74
2021/08/23 09:35:31;;;;;;;10.63;4.15;;;;;;;42.26;17.45;97425.91;5073677;28;20028;-74
2021/08/23 09:37:56;;;;;;;6.68;4.35;;;;;;;44.15;15.83;97427.03;5073520;28;20554;-73
2021/08/23 09:40:31;;;;;;;4.85;4.35;;;;;;;43.92;15.77;97417.63;5073656;28;20071;-75
2021/08/23 09:43:11;;;;;;;10.23;4.28;;;;;;;45.15;14.76;97421.13;5073420;28;20110;-75
2021/08/23 09:45:38;;;;;;;7.25;4.47;;;;;;;46.04;14.51;97417.38;5074696;28;20050;-74
2021/08/23 09:48:05;;;;;;;5.00;4.05;;;;;;;46.41;14.01;97410.34;5056675;28;20040;-73
2021/08/23 09:50:44;;;;;;;5.90;4.25;;;;;;;43.83;15.36;97401.75;5090213;28;20035;-73
2021/08/23 09:53:12;;;;;;;9.30;4.13;;;;;;;43.03;16.30;97397.22;5073158;28;20090;-74
2021/08/23 09:55:43;;;;;;;5.75;4.20;;;;;;;44.13;15.38;97401.94;5073223;28;20035;-74
2021/08/23 09:58:10;;;;;;;6.13;4.28;;;;;;;44.86;14.66;97391.59;5056359;28;20036;-73
2021/08/23 10:00:40;;;;;;;5.53;4.55;;;;;;;44.69;15.29;97392.28;5073351;28;20503;-75
2021/08/23 10:03:14;;;;;;;4.97;3.97;;;;;;;45.31;14.57;97386.84;5055965;28;20452;-74
2021/08/23 10:05:42;;;;;;;4.95;4.45;;;;;;;44.60;14.68;97383.75;5073011;28;20481;-73
2021/08/23 10:08:08;;;;;;;9.50;4.20;;;;;;;44.55;14.59;97385.84;5072667;28;20039;-74
2021/08/23 10:10:35;;;;;;;6.22;3.92;;;;;;;44.05;15.14;97376.47;5073089;28;20029;-74
2021/08/23 10:13:00;;;;;;;4.57;4.15;;;;;;;41.31;17.21;97366.75;5072746;28;20036;-74
2021/08/23 10:15:27;;;;;;;4.70;4.20;;;;;;;39.47;18.86;97367.25;5072897;28;20093;-74
2021/08/23 10:17:53;;;;;;;6.07;4.53;;;;;;;38.18;19.76;97368.50;5073131;28;20484;-74
2021/08/23 10:20:18;;;;;;;4.20;3.80;;;;;;;37.71;19.84;97359.38;5055755;28;20036;-74
2021/08/23 10:22:44;;;;;;;4.88;4.38;;;;;;;37.23;20.37;97357.66;5072518;28;20048;-74
2021/08/23 10:25:10;;;;;;;9.18;5.10;;;;;;;36.90;20.80;97362.44;5072127;28;20051;-74
2021/08/23 10:27:39;;;;;;;5.95;4.32;;;;;;;36.91;20.87;97352.97;5072656;28;20484;-74
2021/08/23 10:30:06;;;;;;;8.63;4.82;;;;;;;36.68;21.53;97361.69;5071935;28;20042;-74
2021/08/23 10:32:39;;;;;;;7.53;4.90;;;;;;;36.60;21.64;97370.53;5072220;28;20020;-73
2021/08/23 10:35:25;;;;;;;7.32;5.00;;;;;;;37.84;21.01;97361.66;5072112;28;20028;-74
2021/08/23 10:37:52;;;;;;;5.95;4.85;;;;;;;40.06;19.06;97364.50;5073784;28;20032;-75
2021/08/23 10:40:23;;;;;;;8.77;4.78;;;;;;;41.41;17.83;97361.06;5073379;28;20048;-73
2021/08/23 10:42:49;;;;;;;6.32;4.35;;;;;;;41.84;17.27;97348.78;5089241;28;20028;-74
2021/08/23 10:45:17;;;;;;;6.82;4.22;;;;;;;41.62;16.85;97346.47;5054603;28;20041;-74
2021/08/23 10:47:44;;;;;;;4.60;4.20;;;;;;;42.83;16.00;97341.19;5072289;28;20028;-74
2021/08/23 10:50:21;;;;;;;4.65;4.20;;;;;;;43.51;15.14;97343.41;5089147;28;20028;-75
2021/08/23 10:52:48;;;;;;;5.35;4.03;;;;;;;44.13;14.91;97337.06;5072345;28;20503;-75
2021/08/23 10:55:24;;;;;;;4.47;4.00;;;;;;;45.64;13.73;97340.97;5073418;28;20064;-76
2021/08/23 10:58:04;;;;;;;6.28;4.32;;;;;;;45.40;14.04;97331.19;5072224;28;20404;-75
2021/08/23 11:00:38;;;;;;;4.88;4.10;;;;;;;46.19;13.66;97335.72;5071950;28;20028;-73
2021/08/23 11:03:04;;;;;;;4.40;4.00;;;;;;;45.83;13.47;97325.75;5071764;28;20029;-76
2021/08/23 11:05:30;;;;;;;5.35;3.97;;;;;;;46.95;12.76;97329.66;5071723;28;20031;-73
2021/08/23 11:08:03;;;;;;;4.75;3.97;;;;;;;45.64;13.65;97320.34;5073226;28;20537;-73
2021/08/23 11:10:32;;;;;;;4.88;3.80;;;;;;;43.25;14.51;97308.38;5072066;28;20020;-74
2021/08/23 11:13:13;;;;;;;6.95;4.07;;;;;;;40.28;16.91;97308.03;5071748;28;20043;-75
2021/08/23 11:15:38;;;;;;;8.35;3.72;;;;;;;38.42;18.16;97301.78;5071904;28;20521;-74
2021/08/23 11:18:09;;;;;;;10.18;4.07;;;;;;;37.64;19.07;97300.97;5071555;28;20238;-74
2021/08/23 11:20:40;;;;;;;5.03;4.10;;;;;;;36.41;20.31;97282.78;5072977;28;20024;-75
2021/08/23 11:23:25;;;;;;;5.22;4.30;;;;;;;35.55;21.72;97300.47;5071613;28;20031;-74
2021/08/23 11:25:54;;;;;;;11.07;5.72;;;;;;;35.55;21.25;97298.53;5054729;28;20447;-74